sensor_id;sensor_type;location;lat;lon;timestamp;P1;durP1;ratioP1;P2;durP2;ratioP2
52744;SDS011;38637;49.984;20.426;2022-11-03T00:01:04;19.07;;;9.30;;
52744;SDS011;38637;49.984;20.426;2022-11-03T00:03:29;15.93;;;9.63;;
52744;SDS011;38637;49.984;20.426;2022-11-03T00:05:54;16.17;;;10.40;;
52744;SDS011;38637;49.984;20.426;2022-11-03T00:08:39;15.98;;;9.65;;
52744;SDS011;38637;49.984;20.426;2022-11-03T00:13:36;12.73;;;8.13;;
52744;SDS011;38637;49.984;20.426;2022-11-03T00:16:02;13.38;;;9.48;;
52744;SDS011;38637;49.984;20.426;2022-11-03T00:18:28;12.35;;;7.93;;
52744;SDS011;38637;49.984;20.426;2022-11-03T00:20:57;15.27;;;9.00;;
52744;SDS011;38637;49.984;20.426;2022-11-03T00:23:25;11.93;;;8.25;;
52744;SDS011;38637;49.984;20.426;2022-11-03T00:26:02;18.80;;;9.65;;
52744;SDS011;38637;49.984;20.426;2022-11-03T00:28:33;18.95;;;10.88;;
52744;SDS011;38637;49.984;20.426;2022-11-03T00:31:00;19.35;;;12.05;;
52744;SDS011;38637;49.984;20.426;2022-11-03T00:33:32;18.63;;;12.55;;
52744;SDS011;38637;49.984;20.426;2022-11-03T00:35:58;16.75;;;11.07;;
52744;SDS011;38637;49.984;20.426;2022-11-03T00:38:25;15.50;;;9.82;;
52744;SDS011;38637;49.984;20.426;2022-11-03T00:40:55;15.77;;;9.30;;
52744;SDS011;38637;49.984;20.426;2022-11-03T00:43:25;18.67;;;9.10;;
52744;SDS011;38637;49.984;20.426;2022-11-03T00:45:52;13.93;;;8.55;;
52744;SDS011;38637;49.984;20.426;2022-11-03T00:48:18;16.73;;;10.02;;
52744;SDS011;38637;49.984;20.426;2022-11-03T00:50:53;19.77;;;9.38;;
52744;SDS011;38637;49.984;20.426;2022-11-03T00:53:26;19.10;;;9.52;;
52744;SDS011;38637;49.984;20.426;2022-11-03T00:55:52;14.57;;;9.57;;
52744;SDS011;38637;49.984;20.426;2022-11-03T00:58:18;15.40;;;9.23;;
52744;SDS011;38637;49.984;20.426;2022-11-03T01:00:43;12.67;;;8.33;;
52744;SDS011;38637;49.984;20.426;2022-11-03T01:03:09;16.03;;;7.73;;
52744;SDS011;38637;49.984;20.426;2022-11-03T01:05:38;11.83;;;8.07;;
52744;SDS011;38637;49.984;20.426;2022-11-03T01:08:33;18.63;;;9.30;;
52744;SDS011;38637;49.984;20.426;2022-11-03T01:11:19;18.17;;;8.32;;
52744;SDS011;38637;49.984;20.426;2022-11-03T01:14:06;16.60;;;9.18;;
52744;SDS011;38637;49.984;20.426;2022-11-03T01:16:32;12.98;;;8.60;;
52744;SDS011;38637;49.984;20.426;2022-11-03T01:18:57;14.00;;;8.37;;
52744;SDS011;38637;49.984;20.426;2022-11-03T01:21:23;17.50;;;8.90;;
52744;SDS011;38637;49.984;20.426;2022-11-03T01:23:49;17.47;;;8.83;;
52744;SDS011;38637;49.984;20.426;2022-11-03T01:26:14;12.50;;;7.30;;
52744;SDS011;38637;49.984;20.426;2022-11-03T01:28:41;14.27;;;8.87;;
52744;SDS011;38637;49.984;20.426;2022-11-03T01:31:09;10.82;;;8.20;;
52744;SDS011;38637;49.984;20.426;2022-11-03T01:33:37;14.95;;;9.65;;
52744;SDS011;38637;49.984;20.426;2022-11-03T01:36:03;21.15;;;9.88;;
52744;SDS011;38637;49.984;20.426;2022-11-03T01:38:32;13.27;;;8.83;;
52744;SDS011;38637;49.984;20.426;2022-11-03T01:40:59;16.38;;;8.90;;
52744;SDS011;38637;49.984;20.426;2022-11-03T01:43:25;16.92;;;8.65;;
52744;SDS011;38637;49.984;20.426;2022-11-03T01:45:56;18.08;;;8.50;;
52744;SDS011;38637;49.984;20.426;2022-11-03T01:50:58;23.67;;;10.18;;
52744;SDS011;38637;49.984;20.426;2022-11-03T01:53:24;12.82;;;9.50;;
52744;SDS011;38637;49.984;20.426;2022-11-03T01:55:51;20.15;;;9.70;;
52744;SDS011;38637;49.984;20.426;2022-11-03T01:58:20;15.20;;;9.75;;
52744;SDS011;38637;49.984;20.426;2022-11-03T02:00:58;16.75;;;9.15;;
52744;SDS011;38637;49.984;20.426;2022-11-03T02:03:25;17.17;;;9.70;;
52744;SDS011;38637;49.984;20.426;2022-11-03T02:05:55;15.93;;;9.68;;
52744;SDS011;38637;49.984;20.426;2022-11-03T02:08:29;15.20;;;9.10;;
52744;SDS011;38637;49.984;20.426;2022-11-03T02:10:59;16.45;;;9.35;;
52744;SDS011;38637;49.984;20.426;2022-11-03T02:13:44;16.38;;;9.00;;
52744;SDS011;38637;49.984;20.426;2022-11-03T02:16:09;12.20;;;8.70;;
52744;SDS011;38637;49.984;20.426;2022-11-03T02:18:35;12.33;;;8.70;;
52744;SDS011;38637;49.984;20.426;2022-11-03T02:24:05;13.48;;;8.60;;
52744;SDS011;38637;49.984;20.426;2022-11-03T02:26:46;11.95;;;8.02;;
52744;SDS011;38637;49.984;20.426;2022-11-03T02:29:12;14.93;;;9.57;;
52744;SDS011;38637;49.984;20.426;2022-11-03T02:31:40;12.77;;;8.97;;
52744;SDS011;38637;49.984;20.426;2022-11-03T02:34:14;13.40;;;8.85;;
52744;SDS011;38637;49.984;20.426;2022-11-03T02:36:46;14.65;;;9.50;;
52744;SDS011;38637;49.984;20.426;2022-11-03T02:39:37;13.65;;;8.90;;
52744;SDS011;38637;49.984;20.426;2022-11-03T02:42:08;10.73;;;8.00;;
52744;SDS011;38637;49.984;20.426;2022-11-03T02:44:36;15.25;;;8.68;;
52744;SDS011;38637;49.984;20.426;2022-11-03T02:47:04;14.43;;;7.90;;
52744;SDS011;38637;49.984;20.426;2022-11-03T02:49:37;12.40;;;7.47;;
52744;SDS011;38637;49.984;20.426;2022-11-03T02:52:04;15.02;;;7.97;;
52744;SDS011;38637;49.984;20.426;2022-11-03T02:54:34;17.73;;;8.73;;
52744;SDS011;38637;49.984;20.426;2022-11-03T02:57:26;14.02;;;9.80;;
52744;SDS011;38637;49.984;20.426;2022-11-03T02:59:59;15.80;;;10.13;;
52744;SDS011;38637;49.984;20.426;2022-11-03T03:02:34;19.98;;;9.57;;
52744;SDS011;38637;49.984;20.426;2022-11-03T03:05:10;13.45;;;8.38;;
52744;SDS011;38637;49.984;20.426;2022-11-03T03:07:39;14.18;;;9.15;;
52744;SDS011;38637;49.984;20.426;2022-11-03T03:10:09;14.75;;;9.68;;
52744;SDS011;38637;49.984;20.426;2022-11-03T03:12:39;13.55;;;9.02;;
52744;SDS011;38637;49.984;20.426;2022-11-03T03:15:10;14.85;;;8.80;;
52744;SDS011;38637;49.984;20.426;2022-11-03T03:17:51;13.50;;;8.00;;
52744;SDS011;38637;49.984;20.426;2022-11-03T03:20:23;21.50;;;9.45;;
52744;SDS011;38637;49.984;20.426;2022-11-03T03:22:56;13.45;;;8.48;;
52744;SDS011;38637;49.984;20.426;2022-11-03T03:27:56;11.65;;;8.15;;
52744;SDS011;38637;49.984;20.426;2022-11-03T03:30:27;12.10;;;7.80;;
52744;SDS011;38637;49.984;20.426;2022-11-03T03:32:54;10.50;;;7.93;;
52744;SDS011;38637;49.984;20.426;2022-11-03T03:35:22;14.07;;;8.45;;
52744;SDS011;38637;49.984;20.426;2022-11-03T03:37:51;11.60;;;7.70;;
52744;SDS011;38637;49.984;20.426;2022-11-03T03:40:28;13.43;;;7.90;;
52744;SDS011;38637;49.984;20.426;2022-11-03T03:42:56;15.48;;;8.73;;
52744;SDS011;38637;49.984;20.426;2022-11-03T03:45:23;13.10;;;8.13;;
52744;SDS011;38637;49.984;20.426;2022-11-03T03:47:50;13.93;;;8.75;;
52744;SDS011;38637;49.984;20.426;2022-11-03T03:50:16;16.43;;;9.73;;
52744;SDS011;38637;49.984;20.426;2022-11-03T03:52:42;14.93;;;9.38;;
52744;SDS011;38637;49.984;20.426;2022-11-03T03:55:11;13.67;;;8.93;;
52744;SDS011;38637;49.984;20.426;2022-11-03T03:57:41;16.20;;;9.68;;
52744;SDS011;38637;49.984;20.426;2022-11-03T04:00:08;14.88;;;9.00;;
52744;SDS011;38637;49.984;20.426;2022-11-03T04:02:36;16.95;;;9.40;;
52744;SDS011;38637;49.984;20.426;2022-11-03T04:05:02;17.17;;;9.60;;
52744;SDS011;38637;49.984;20.426;2022-11-03T04:07:27;12.63;;;7.90;;
52744;SDS011;38637;49.984;20.426;2022-11-03T04:10:10;15.63;;;8.85;;
52744;SDS011;38637;49.984;20.426;2022-11-03T04:12:36;14.93;;;8.90;;
52744;SDS011;38637;49.984;20.426;2022-11-03T04:15:23;14.95;;;8.20;;
52744;SDS011;38637;49.984;20.426;2022-11-03T04:18:07;18.27;;;8.15;;
52744;SDS011;38637;49.984;20.426;2022-11-03T04:20:53;17.17;;;8.27;;
52744;SDS011;38637;49.984;20.426;2022-11-03T04:23:36;11.70;;;8.73;;
52744;SDS011;38637;49.984;20.426;2022-11-03T04:26:02;17.03;;;9.27;;
52744;SDS011;38637;49.984;20.426;2022-11-03T04:28:30;11.70;;;8.65;;
52744;SDS011;38637;49.984;20.426;2022-11-03T04:30:56;17.97;;;8.87;;
52744;SDS011;38637;49.984;20.426;2022-11-03T04:33:23;14.48;;;9.30;;
52744;SDS011;38637;49.984;20.426;2022-11-03T04:35:48;14.60;;;8.50;;
52744;SDS011;38637;49.984;20.426;2022-11-03T04:40:40;12.97;;;8.13;;
52744;SDS011;38637;49.984;20.426;2022-11-03T04:43:14;15.13;;;9.52;;
52744;SDS011;38637;49.984;20.426;2022-11-03T04:45:45;12.88;;;8.20;;
52744;SDS011;38637;49.984;20.426;2022-11-03T04:48:12;13.90;;;8.05;;
52744;SDS011;38637;49.984;20.426;2022-11-03T04:50:48;14.13;;;8.63;;
52744;SDS011;38637;49.984;20.426;2022-11-03T04:53:16;15.75;;;8.63;;
52744;SDS011;38637;49.984;20.426;2022-11-03T04:55:43;14.10;;;8.50;;
52744;SDS011;38637;49.984;20.426;2022-11-03T04:58:19;17.85;;;10.40;;
52744;SDS011;38637;49.984;20.426;2022-11-03T05:00:49;16.58;;;9.02;;
52744;SDS011;38637;49.984;20.426;2022-11-03T05:03:19;16.77;;;9.38;;
52744;SDS011;38637;49.984;20.426;2022-11-03T05:05:49;15.40;;;9.98;;
52744;SDS011;38637;49.984;20.426;2022-11-03T05:08:16;13.38;;;9.32;;
52744;SDS011;38637;49.984;20.426;2022-11-03T05:10:42;12.63;;;9.02;;
52744;SDS011;38637;49.984;20.426;2022-11-03T05:13:11;15.33;;;9.60;;
52744;SDS011;38637;49.984;20.426;2022-11-03T05:15:43;20.77;;;9.85;;
52744;SDS011;38637;49.984;20.426;2022-11-03T05:18:28;18.88;;;9.45;;
52744;SDS011;38637;49.984;20.426;2022-11-03T05:21:02;15.93;;;9.93;;
52744;SDS011;38637;49.984;20.426;2022-11-03T05:23:31;17.00;;;9.40;;
52744;SDS011;38637;49.984;20.426;2022-11-03T05:26:05;16.25;;;10.25;;
52744;SDS011;38637;49.984;20.426;2022-11-03T05:28:39;18.33;;;11.80;;
52744;SDS011;38637;49.984;20.426;2022-11-03T05:31:20;15.05;;;9.60;;
52744;SDS011;38637;49.984;20.426;2022-11-03T05:33:48;17.92;;;9.70;;
52744;SDS011;38637;49.984;20.426;2022-11-03T05:36:17;16.30;;;10.60;;
52744;SDS011;38637;49.984;20.426;2022-11-03T05:38:48;17.60;;;11.32;;
52744;SDS011;38637;49.984;20.426;2022-11-03T05:41:15;32.75;;;13.23;;
52744;SDS011;38637;49.984;20.426;2022-11-03T05:43:58;21.88;;;13.48;;
52744;SDS011;38637;49.984;20.426;2022-11-03T05:46:26;23.98;;;12.85;;
52744;SDS011;38637;49.984;20.426;2022-11-03T05:48:54;21.95;;;13.57;;
52744;SDS011;38637;49.984;20.426;2022-11-03T05:53:45;22.10;;;11.30;;
52744;SDS011;38637;49.984;20.426;2022-11-03T05:56:15;19.63;;;11.13;;
52744;SDS011;38637;49.984;20.426;2022-11-03T05:58:43;16.13;;;10.52;;
52744;SDS011;38637;49.984;20.426;2022-11-03T06:01:12;16.30;;;10.90;;
52744;SDS011;38637;49.984;20.426;2022-11-03T06:03:40;18.17;;;12.07;;
52744;SDS011;38637;49.984;20.426;2022-11-03T06:06:14;22.23;;;12.83;;
52744;SDS011;38637;49.984;20.426;2022-11-03T06:08:44;23.67;;;13.13;;
52744;SDS011;38637;49.984;20.426;2022-11-03T06:11:15;22.02;;;12.88;;
52744;SDS011;38637;49.984;20.426;2022-11-03T06:13:46;21.98;;;13.75;;
52744;SDS011;38637;49.984;20.426;2022-11-03T06:19:29;14.20;;;9.77;;
52744;SDS011;38637;49.984;20.426;2022-11-03T06:22:17;16.67;;;10.75;;
52744;SDS011;38637;49.984;20.426;2022-11-03T06:24:47;19.70;;;9.82;;
52744;SDS011;38637;49.984;20.426;2022-11-03T06:27:14;17.27;;;10.03;;
52744;SDS011;38637;49.984;20.426;2022-11-03T06:29:47;15.50;;;8.82;;
52744;SDS011;38637;49.984;20.426;2022-11-03T06:32:16;14.30;;;8.52;;
52744;SDS011;38637;49.984;20.426;2022-11-03T06:34:43;13.70;;;9.77;;
52744;SDS011;38637;49.984;20.426;2022-11-03T06:37:21;14.88;;;9.32;;
52744;SDS011;38637;49.984;20.426;2022-11-03T06:39:50;16.75;;;10.05;;
52744;SDS011;38637;49.984;20.426;2022-11-03T06:42:20;18.13;;;11.32;;
52744;SDS011;38637;49.984;20.426;2022-11-03T06:44:47;17.40;;;11.80;;
52744;SDS011;38637;49.984;20.426;2022-11-03T06:47:16;15.15;;;10.55;;
52744;SDS011;38637;49.984;20.426;2022-11-03T06:49:47;19.83;;;11.15;;
52744;SDS011;38637;49.984;20.426;2022-11-03T06:52:19;14.50;;;10.18;;
52744;SDS011;38637;49.984;20.426;2022-11-03T06:54:47;14.48;;;9.45;;
52744;SDS011;38637;49.984;20.426;2022-11-03T06:57:19;18.60;;;11.23;;
52744;SDS011;38637;49.984;20.426;2022-11-03T06:59:44;19.23;;;11.50;;
52744;SDS011;38637;49.984;20.426;2022-11-03T07:04:58;17.20;;;10.52;;
52744;SDS011;38637;49.984;20.426;2022-11-03T07:07:24;19.53;;;10.73;;
52744;SDS011;38637;49.984;20.426;2022-11-03T07:09:49;18.17;;;10.73;;
52744;SDS011;38637;49.984;20.426;2022-11-03T07:12:15;19.37;;;11.33;;
52744;SDS011;38637;49.984;20.426;2022-11-03T07:14:42;21.55;;;9.90;;
52744;SDS011;38637;49.984;20.426;2022-11-03T07:17:14;20.73;;;10.93;;
52744;SDS011;38637;49.984;20.426;2022-11-03T07:19:44;21.20;;;11.32;;
52744;SDS011;38637;49.984;20.426;2022-11-03T07:22:20;19.43;;;11.77;;
52744;SDS011;38637;49.984;20.426;2022-11-03T07:24:48;22.08;;;10.98;;
52744;SDS011;38637;49.984;20.426;2022-11-03T07:27:19;16.42;;;10.75;;
52744;SDS011;38637;49.984;20.426;2022-11-03T07:29:46;18.83;;;11.75;;
52744;SDS011;38637;49.984;20.426;2022-11-03T07:32:17;13.43;;;8.20;;
52744;SDS011;38637;49.984;20.426;2022-11-03T07:34:44;16.00;;;9.95;;
52744;SDS011;38637;49.984;20.426;2022-11-03T07:39:42;14.63;;;10.30;;
52744;SDS011;38637;49.984;20.426;2022-11-03T07:42:11;11.93;;;8.93;;
52744;SDS011;38637;49.984;20.426;2022-11-03T07:44:39;12.18;;;9.07;;
52744;SDS011;38637;49.984;20.426;2022-11-03T07:47:05;13.93;;;9.07;;
52744;SDS011;38637;49.984;20.426;2022-11-03T07:49:36;10.70;;;8.30;;
52744;SDS011;38637;49.984;20.426;2022-11-03T07:52:04;13.70;;;9.37;;
52744;SDS011;38637;49.984;20.426;2022-11-03T07:54:34;11.23;;;7.82;;
52744;SDS011;38637;49.984;20.426;2022-11-03T07:57:00;12.47;;;8.67;;
52744;SDS011;38637;49.984;20.426;2022-11-03T07:59:40;16.30;;;10.85;;
52744;SDS011;38637;49.984;20.426;2022-11-03T08:05:10;18.60;;;11.75;;
52744;SDS011;38637;49.984;20.426;2022-11-03T08:07:35;22.10;;;12.63;;
52744;SDS011;38637;49.984;20.426;2022-11-03T08:10:00;17.80;;;12.60;;
52744;SDS011;38637;49.984;20.426;2022-11-03T08:12:26;28.13;;;13.60;;
52744;SDS011;38637;49.984;20.426;2022-11-03T08:14:51;21.07;;;13.47;;
52744;SDS011;38637;49.984;20.426;2022-11-03T08:17:16;20.13;;;12.67;;
52744;SDS011;38637;49.984;20.426;2022-11-03T08:19:42;18.33;;;12.17;;
52744;SDS011;38637;49.984;20.426;2022-11-03T08:22:07;19.13;;;12.07;;
52744;SDS011;38637;49.984;20.426;2022-11-03T08:24:33;20.93;;;12.20;;
52744;SDS011;38637;49.984;20.426;2022-11-03T08:26:58;21.50;;;11.43;;
52744;SDS011;38637;49.984;20.426;2022-11-03T08:29:23;22.27;;;13.03;;
52744;SDS011;38637;49.984;20.426;2022-11-03T08:31:51;22.90;;;12.13;;
52744;SDS011;38637;49.984;20.426;2022-11-03T08:34:17;27.02;;;14.93;;
52744;SDS011;38637;49.984;20.426;2022-11-03T08:36:42;18.40;;;12.00;;
52744;SDS011;38637;49.984;20.426;2022-11-03T08:39:08;25.77;;;13.70;;
52744;SDS011;38637;49.984;20.426;2022-11-03T08:41:34;19.77;;;10.97;;
52744;SDS011;38637;49.984;20.426;2022-11-03T08:43:59;22.60;;;10.83;;
52744;SDS011;38637;49.984;20.426;2022-11-03T08:46:24;16.57;;;10.20;;
52744;SDS011;38637;49.984;20.426;2022-11-03T08:48:50;20.30;;;10.10;;
52744;SDS011;38637;49.984;20.426;2022-11-03T08:51:15;17.80;;;10.10;;
52744;SDS011;38637;49.984;20.426;2022-11-03T08:53:41;18.93;;;8.63;;
52744;SDS011;38637;49.984;20.426;2022-11-03T08:56:07;20.30;;;10.07;;
52744;SDS011;38637;49.984;20.426;2022-11-03T08:58:32;14.17;;;7.50;;
52744;SDS011;38637;49.984;20.426;2022-11-03T09:00:58;15.73;;;7.97;;
52744;SDS011;38637;49.984;20.426;2022-11-03T09:03:23;12.13;;;7.97;;
52744;SDS011;38637;49.984;20.426;2022-11-03T09:05:48;12.60;;;6.63;;
52744;SDS011;38637;49.984;20.426;2022-11-03T09:08:14;17.20;;;5.97;;
52744;SDS011;38637;49.984;20.426;2022-11-03T09:10:39;11.90;;;6.50;;
52744;SDS011;38637;49.984;20.426;2022-11-03T09:13:05;11.33;;;6.27;;
52744;SDS011;38637;49.984;20.426;2022-11-03T09:15:30;13.23;;;5.97;;
52744;SDS011;38637;49.984;20.426;2022-11-03T09:17:56;13.27;;;5.73;;
52744;SDS011;38637;49.984;20.426;2022-11-03T09:20:21;16.80;;;6.17;;
52744;SDS011;38637;49.984;20.426;2022-11-03T09:22:46;11.13;;;5.27;;
52744;SDS011;38637;49.984;20.426;2022-11-03T09:25:12;11.60;;;4.63;;
52744;SDS011;38637;49.984;20.426;2022-11-03T09:27:37;8.83;;;4.40;;
52744;SDS011;38637;49.984;20.426;2022-11-03T09:30:03;8.83;;;4.30;;
52744;SDS011;38637;49.984;20.426;2022-11-03T09:32:30;11.35;;;5.00;;
52744;SDS011;38637;49.984;20.426;2022-11-03T09:34:56;12.53;;;4.80;;
52744;SDS011;38637;49.984;20.426;2022-11-03T09:37:21;9.97;;;5.23;;
52744;SDS011;38637;49.984;20.426;2022-11-03T09:39:47;8.27;;;4.37;;
52744;SDS011;38637;49.984;20.426;2022-11-03T09:42:12;9.13;;;3.97;;
52744;SDS011;38637;49.984;20.426;2022-11-03T09:44:39;9.10;;;4.22;;
52744;SDS011;38637;49.984;20.426;2022-11-03T09:47:04;10.53;;;3.80;;
52744;SDS011;38637;49.984;20.426;2022-11-03T09:49:31;10.97;;;3.30;;
52744;SDS011;38637;49.984;20.426;2022-11-03T09:54:23;8.43;;;3.28;;
52744;SDS011;38637;49.984;20.426;2022-11-03T09:56:50;7.90;;;3.83;;
52744;SDS011;38637;49.984;20.426;2022-11-03T09:59:17;9.23;;;3.13;;
52744;SDS011;38637;49.984;20.426;2022-11-03T10:01:45;7.10;;;3.10;;
52744;SDS011;38637;49.984;20.426;2022-11-03T10:04:14;10.55;;;3.75;;
52744;SDS011;38637;49.984;20.426;2022-11-03T10:06:40;12.32;;;3.40;;
52744;SDS011;38637;49.984;20.426;2022-11-03T10:09:08;11.07;;;3.27;;
52744;SDS011;38637;49.984;20.426;2022-11-03T10:11:38;8.07;;;2.88;;
52744;SDS011;38637;49.984;20.426;2022-11-03T10:14:04;6.10;;;2.97;;
52744;SDS011;38637;49.984;20.426;2022-11-03T10:16:33;6.18;;;3.08;;
52744;SDS011;38637;49.984;20.426;2022-11-03T10:18:59;7.23;;;3.27;;
52744;SDS011;38637;49.984;20.426;2022-11-03T10:21:27;7.03;;;3.50;;
52744;SDS011;38637;49.984;20.426;2022-11-03T10:23:58;7.15;;;3.13;;
52744;SDS011;38637;49.984;20.426;2022-11-03T10:26:23;11.87;;;3.07;;
52744;SDS011;38637;49.984;20.426;2022-11-03T10:31:22;6.32;;;2.95;;
52744;SDS011;38637;49.984;20.426;2022-11-03T10:33:56;7.38;;;3.10;;
52744;SDS011;38637;49.984;20.426;2022-11-03T10:36:22;6.43;;;2.37;;
52744;SDS011;38637;49.984;20.426;2022-11-03T10:38:53;5.13;;;2.03;;
52744;SDS011;38637;49.984;20.426;2022-11-03T10:41:20;8.95;;;2.55;;
52744;SDS011;38637;49.984;20.426;2022-11-03T10:44:01;8.45;;;2.20;;
52744;SDS011;38637;49.984;20.426;2022-11-03T10:46:36;4.22;;;2.17;;
52744;SDS011;38637;49.984;20.426;2022-11-03T10:51:42;4.95;;;2.17;;
52744;SDS011;38637;49.984;20.426;2022-11-03T10:54:16;7.22;;;2.60;;
52744;SDS011;38637;49.984;20.426;2022-11-03T10:56:43;4.47;;;2.33;;
52744;SDS011;38637;49.984;20.426;2022-11-03T10:59:16;8.48;;;2.53;;
52744;SDS011;38637;49.984;20.426;2022-11-03T11:01:44;5.45;;;2.78;;
52744;SDS011;38637;49.984;20.426;2022-11-03T11:04:11;8.43;;;3.00;;
52744;SDS011;38637;49.984;20.426;2022-11-03T11:06:40;7.13;;;2.75;;
52744;SDS011;38637;49.984;20.426;2022-11-03T11:09:08;8.53;;;3.27;;
52744;SDS011;38637;49.984;20.426;2022-11-03T11:11:36;4.72;;;2.67;;
52744;SDS011;38637;49.984;20.426;2022-11-03T11:16:58;11.15;;;3.10;;
52744;SDS011;38637;49.984;20.426;2022-11-03T11:19:25;7.10;;;4.03;;
52744;SDS011;38637;49.984;20.426;2022-11-03T11:30:04;9.23;;;3.17;;
52744;SDS011;38637;49.984;20.426;2022-11-03T11:37:47;5.93;;;2.67;;
52744;SDS011;38637;49.984;20.426;2022-11-03T11:40:14;5.53;;;2.90;;
52744;SDS011;38637;49.984;20.426;2022-11-03T11:48:29;9.15;;;2.70;;
52744;SDS011;38637;49.984;20.426;2022-11-03T11:50:57;3.67;;;1.73;;
52744;SDS011;38637;49.984;20.426;2022-11-03T11:53:23;6.43;;;2.08;;
52744;SDS011;38637;49.984;20.426;2022-11-03T11:55:54;7.50;;;2.38;;
52744;SDS011;38637;49.984;20.426;2022-11-03T11:58:25;4.07;;;1.83;;
52744;SDS011;38637;49.984;20.426;2022-11-03T12:01:00;4.90;;;1.85;;
52744;SDS011;38637;49.984;20.426;2022-11-03T12:03:29;6.32;;;2.15;;
52744;SDS011;38637;49.984;20.426;2022-11-03T12:05:57;5.43;;;2.03;;
52744;SDS011;38637;49.984;20.426;2022-11-03T12:08:24;5.97;;;2.27;;
52744;SDS011;38637;49.984;20.426;2022-11-03T12:10:53;6.47;;;2.30;;
52744;SDS011;38637;49.984;20.426;2022-11-03T12:19:29;6.13;;;2.20;;
52744;SDS011;38637;49.984;20.426;2022-11-03T12:22:01;6.78;;;1.73;;
52744;SDS011;38637;49.984;20.426;2022-11-03T12:24:37;4.38;;;1.95;;
52744;SDS011;38637;49.984;20.426;2022-11-03T12:27:16;3.35;;;1.58;;
52744;SDS011;38637;49.984;20.426;2022-11-03T12:29:41;4.57;;;2.25;;
52744;SDS011;38637;49.984;20.426;2022-11-03T12:32:07;4.20;;;1.70;;
52744;SDS011;38637;49.984;20.426;2022-11-03T12:34:32;5.80;;;1.90;;
52744;SDS011;38637;49.984;20.426;2022-11-03T12:36:57;3.83;;;1.87;;
52744;SDS011;38637;49.984;20.426;2022-11-03T12:39:23;8.60;;;2.60;;
52744;SDS011;38637;49.984;20.426;2022-11-03T12:41:48;3.63;;;2.17;;
52744;SDS011;38637;49.984;20.426;2022-11-03T12:44:13;5.37;;;1.90;;
52744;SDS011;38637;49.984;20.426;2022-11-03T12:46:38;6.43;;;2.10;;
52744;SDS011;38637;49.984;20.426;2022-11-03T12:49:04;7.30;;;1.90;;
52744;SDS011;38637;49.984;20.426;2022-11-03T12:51:29;4.67;;;1.60;;
52744;SDS011;38637;49.984;20.426;2022-11-03T12:53:54;4.67;;;1.67;;
52744;SDS011;38637;49.984;20.426;2022-11-03T12:56:20;4.67;;;2.00;;
52744;SDS011;38637;49.984;20.426;2022-11-03T12:58:45;6.10;;;2.03;;
52744;SDS011;38637;49.984;20.426;2022-11-03T13:01:11;4.38;;;2.38;;
52744;SDS011;38637;49.984;20.426;2022-11-03T13:03:36;7.33;;;2.43;;
52744;SDS011;38637;49.984;20.426;2022-11-03T13:06:02;9.20;;;2.63;;
52744;SDS011;38637;49.984;20.426;2022-11-03T13:08:29;5.82;;;2.50;;
52744;SDS011;38637;49.984;20.426;2022-11-03T13:10:55;5.85;;;2.10;;
52744;SDS011;38637;49.984;20.426;2022-11-03T13:13:20;4.00;;;2.17;;
52744;SDS011;38637;49.984;20.426;2022-11-03T13:15:46;7.17;;;2.10;;
52744;SDS011;38637;49.984;20.426;2022-11-03T13:18:11;8.57;;;3.03;;
52744;SDS011;38637;49.984;20.426;2022-11-03T13:20:37;5.47;;;2.50;;
52744;SDS011;38637;49.984;20.426;2022-11-03T13:23:03;6.40;;;3.10;;
52744;SDS011;38637;49.984;20.426;2022-11-03T13:25:29;7.05;;;3.15;;
52744;SDS011;38637;49.984;20.426;2022-11-03T13:27:54;7.03;;;2.80;;
52744;SDS011;38637;49.984;20.426;2022-11-03T13:30:21;7.05;;;2.97;;
52744;SDS011;38637;49.984;20.426;2022-11-03T13:32:48;9.32;;;3.22;;
52744;SDS011;38637;49.984;20.426;2022-11-03T13:35:13;6.43;;;2.90;;
52744;SDS011;38637;49.984;20.426;2022-11-03T13:37:39;6.13;;;3.27;;
52744;SDS011;38637;49.984;20.426;2022-11-03T13:40:04;6.20;;;3.53;;
52744;SDS011;38637;49.984;20.426;2022-11-03T13:42:30;6.75;;;2.78;;
52744;SDS011;38637;49.984;20.426;2022-11-03T13:44:56;8.07;;;2.77;;
52744;SDS011;38637;49.984;20.426;2022-11-03T13:47:22;5.73;;;2.73;;
52744;SDS011;38637;49.984;20.426;2022-11-03T13:49:47;5.93;;;2.60;;
52744;SDS011;38637;49.984;20.426;2022-11-03T13:52:16;5.47;;;2.72;;
52744;SDS011;38637;49.984;20.426;2022-11-03T13:54:42;6.20;;;3.22;;
52744;SDS011;38637;49.984;20.426;2022-11-03T13:57:07;8.03;;;2.97;;
52744;SDS011;38637;49.984;20.426;2022-11-03T13:59:32;11.20;;;3.67;;
52744;SDS011;38637;49.984;20.426;2022-11-03T14:01:58;8.73;;;3.33;;
52744;SDS011;38637;49.984;20.426;2022-11-03T14:04:24;8.40;;;3.47;;
52744;SDS011;38637;49.984;20.426;2022-11-03T14:06:49;5.57;;;2.50;;
52744;SDS011;38637;49.984;20.426;2022-11-03T14:09:14;6.73;;;2.83;;
52744;SDS011;38637;49.984;20.426;2022-11-03T14:11:40;6.97;;;3.30;;
52744;SDS011;38637;49.984;20.426;2022-11-03T14:14:23;8.23;;;3.67;;
52744;SDS011;38637;49.984;20.426;2022-11-03T14:16:49;4.53;;;2.93;;
52744;SDS011;38637;49.984;20.426;2022-11-03T14:19:14;8.17;;;3.00;;
52744;SDS011;38637;49.984;20.426;2022-11-03T14:21:39;11.73;;;3.67;;
52744;SDS011;38637;49.984;20.426;2022-11-03T14:24:06;7.68;;;3.38;;
52744;SDS011;38637;49.984;20.426;2022-11-03T14:26:32;11.05;;;3.08;;
52744;SDS011;38637;49.984;20.426;2022-11-03T14:28:58;7.00;;;2.67;;
52744;SDS011;38637;49.984;20.426;2022-11-03T14:31:23;14.37;;;4.63;;
52744;SDS011;38637;49.984;20.426;2022-11-03T14:33:49;9.57;;;4.27;;
52744;SDS011;38637;49.984;20.426;2022-11-03T14:36:14;8.60;;;3.53;;
52744;SDS011;38637;49.984;20.426;2022-11-03T14:38:39;19.60;;;5.30;;
52744;SDS011;38637;49.984;20.426;2022-11-03T14:41:04;11.70;;;4.87;;
52744;SDS011;38637;49.984;20.426;2022-11-03T14:43:48;9.98;;;5.30;;
52744;SDS011;38637;49.984;20.426;2022-11-03T14:46:14;8.47;;;4.67;;
52744;SDS011;38637;49.984;20.426;2022-11-03T14:48:39;10.03;;;5.27;;
52744;SDS011;38637;49.984;20.426;2022-11-03T14:51:04;9.97;;;5.07;;
52744;SDS011;38637;49.984;20.426;2022-11-03T14:53:30;10.10;;;5.33;;
52744;SDS011;38637;49.984;20.426;2022-11-03T14:55:57;10.18;;;5.22;;
52744;SDS011;38637;49.984;20.426;2022-11-03T14:58:22;17.20;;;5.73;;
52744;SDS011;38637;49.984;20.426;2022-11-03T15:00:47;13.10;;;6.20;;
52744;SDS011;38637;49.984;20.426;2022-11-03T15:03:13;11.43;;;5.13;;
52744;SDS011;38637;49.984;20.426;2022-11-03T15:05:38;13.30;;;5.90;;
52744;SDS011;38637;49.984;20.426;2022-11-03T15:08:13;8.45;;;4.70;;
52744;SDS011;38637;49.984;20.426;2022-11-03T15:10:40;15.80;;;5.85;;
52744;SDS011;38637;49.984;20.426;2022-11-03T15:13:05;12.90;;;4.77;;
52744;SDS011;38637;49.984;20.426;2022-11-03T15:15:31;10.63;;;6.00;;
52744;SDS011;38637;49.984;20.426;2022-11-03T15:17:56;11.37;;;6.00;;
52744;SDS011;38637;49.984;20.426;2022-11-03T15:20:22;14.77;;;6.43;;
52744;SDS011;38637;49.984;20.426;2022-11-03T15:22:47;14.90;;;7.60;;
52744;SDS011;38637;49.984;20.426;2022-11-03T15:25:12;27.60;;;9.87;;
52744;SDS011;38637;49.984;20.426;2022-11-03T15:27:38;21.93;;;11.77;;
52744;SDS011;38637;49.984;20.426;2022-11-03T15:30:06;19.23;;;12.60;;
52744;SDS011;38637;49.984;20.426;2022-11-03T15:32:32;22.35;;;12.50;;
52744;SDS011;38637;49.984;20.426;2022-11-03T15:34:57;19.17;;;11.73;;